sensor_id;sensor_type;location;lat;lon;timestamp;P1;durP1;ratioP1;P2;durP2;ratioP2
46439;SDS011;32138;50.966;6.968;2023-11-21T00:01:23;10.02;;;5.28;;
46439;SDS011;32138;50.966;6.968;2023-11-21T00:02:54;10.77;;;5.65;;
46439;SDS011;32138;50.966;6.968;2023-11-21T00:04:25;9.68;;;4.43;;
46439;SDS011;32138;50.966;6.968;2023-11-21T00:05:57;12.65;;;4.55;;
46439;SDS011;32138;50.966;6.968;2023-11-21T00:07:28;8.00;;;4.80;;
46439;SDS011;32138;50.966;6.968;2023-11-21T00:08:59;8.45;;;5.55;;
46439;SDS011;32138;50.966;6.968;2023-11-21T00:10:30;8.82;;;4.93;;
46439;SDS011;32138;50.966;6.968;2023-11-21T00:12:00;9.70;;;5.13;;
46439;SDS011;32138;50.966;6.968;2023-11-21T00:13:32;7.43;;;5.32;;
46439;SDS011;32138;50.966;6.968;2023-11-21T00:15:03;10.65;;;5.68;;
46439;SDS011;32138;50.966;6.968;2023-11-21T00:16:43;13.57;;;5.88;;
46439;SDS011;32138;50.966;6.968;2023-11-21T00:18:15;10.13;;;5.70;;
46439;SDS011;32138;50.966;6.968;2023-11-21T00:19:46;9.32;;;5.45;;
46439;SDS011;32138;50.966;6.968;2023-11-21T00:21:17;10.45;;;6.72;;
46439;SDS011;32138;50.966;6.968;2023-11-21T00:22:48;9.55;;;6.45;;
46439;SDS011;32138;50.966;6.968;2023-11-21T00:24:18;9.18;;;6.90;;
46439;SDS011;32138;50.966;6.968;2023-11-21T00:25:49;10.48;;;7.57;;
46439;SDS011;32138;50.966;6.968;2023-11-21T00:27:20;9.57;;;6.40;;
46439;SDS011;32138;50.966;6.968;2023-11-21T00:28:51;12.05;;;6.82;;
46439;SDS011;32138;50.966;6.968;2023-11-21T00:30:21;12.65;;;7.72;;
46439;SDS011;32138;50.966;6.968;2023-11-21T00:31:52;14.38;;;7.60;;
46439;SDS011;32138;50.966;6.968;2023-11-21T00:33:23;10.55;;;7.45;;
46439;SDS011;32138;50.966;6.968;2023-11-21T00:34:55;9.95;;;7.47;;
46439;SDS011;32138;50.966;6.968;2023-11-21T00:36:26;9.93;;;7.38;;
46439;SDS011;32138;50.966;6.968;2023-11-21T00:37:57;11.55;;;7.63;;
46439;SDS011;32138;50.966;6.968;2023-11-21T00:39:28;11.25;;;7.68;;
46439;SDS011;32138;50.966;6.968;2023-11-21T00:40:59;17.98;;;8.73;;
46439;SDS011;32138;50.966;6.968;2023-11-21T00:42:30;17.60;;;8.52;;
46439;SDS011;32138;50.966;6.968;2023-11-21T00:44:02;15.65;;;9.40;;
46439;SDS011;32138;50.966;6.968;2023-11-21T00:45:33;12.65;;;8.73;;
46439;SDS011;32138;50.966;6.968;2023-11-21T00:47:03;14.70;;;8.48;;
46439;SDS011;32138;50.966;6.968;2023-11-21T00:48:34;19.35;;;10.07;;
46439;SDS011;32138;50.966;6.968;2023-11-21T00:50:05;17.15;;;9.20;;
46439;SDS011;32138;50.966;6.968;2023-11-21T00:51:37;18.48;;;10.20;;
46439;SDS011;32138;50.966;6.968;2023-11-21T00:53:07;15.85;;;9.43;;
46439;SDS011;32138;50.966;6.968;2023-11-21T00:54:38;20.38;;;10.15;;
46439;SDS011;32138;50.966;6.968;2023-11-21T00:56:09;18.60;;;9.77;;
46439;SDS011;32138;50.966;6.968;2023-11-21T00:57:40;17.13;;;9.55;;
46439;SDS011;32138;50.966;6.968;2023-11-21T00:59:11;14.77;;;9.70;;
46439;SDS011;32138;50.966;6.968;2023-11-21T01:00:42;14.80;;;8.95;;
46439;SDS011;32138;50.966;6.968;2023-11-21T01:02:12;15.25;;;9.80;;
46439;SDS011;32138;50.966;6.968;2023-11-21T01:03:44;18.63;;;10.27;;
46439;SDS011;32138;50.966;6.968;2023-11-21T01:05:16;17.50;;;9.70;;
46439;SDS011;32138;50.966;6.968;2023-11-21T01:06:47;15.82;;;10.07;;
46439;SDS011;32138;50.966;6.968;2023-11-21T01:08:18;16.30;;;9.95;;
46439;SDS011;32138;50.966;6.968;2023-11-21T01:09:48;16.40;;;9.40;;
46439;SDS011;32138;50.966;6.968;2023-11-21T01:11:19;16.48;;;10.48;;
46439;SDS011;32138;50.966;6.968;2023-11-21T01:12:50;14.07;;;9.40;;
46439;SDS011;32138;50.966;6.968;2023-11-21T01:14:21;16.00;;;9.80;;
46439;SDS011;32138;50.966;6.968;2023-11-21T01:15:52;12.52;;;9.27;;
46439;SDS011;32138;50.966;6.968;2023-11-21T01:17:22;14.63;;;9.25;;
46439;SDS011;32138;50.966;6.968;2023-11-21T01:18:53;17.30;;;10.23;;
46439;SDS011;32138;50.966;6.968;2023-11-21T01:20:24;16.20;;;10.50;;
46439;SDS011;32138;50.966;6.968;2023-11-21T01:21:56;16.73;;;9.77;;
46439;SDS011;32138;50.966;6.968;2023-11-21T01:23:27;15.80;;;10.57;;
46439;SDS011;32138;50.966;6.968;2023-11-21T01:24:58;18.98;;;10.00;;
46439;SDS011;32138;50.966;6.968;2023-11-21T01:26:29;17.48;;;9.73;;
46439;SDS011;32138;50.966;6.968;2023-11-21T01:28:00;13.55;;;9.38;;
46439;SDS011;32138;50.966;6.968;2023-11-21T01:29:31;12.55;;;8.80;;
46439;SDS011;32138;50.966;6.968;2023-11-21T01:31:01;12.00;;;8.65;;
46439;SDS011;32138;50.966;6.968;2023-11-21T01:32:32;22.02;;;10.23;;
46439;SDS011;32138;50.966;6.968;2023-11-21T01:34:03;12.85;;;8.55;;
46439;SDS011;32138;50.966;6.968;2023-11-21T01:35:34;16.75;;;8.77;;
46439;SDS011;32138;50.966;6.968;2023-11-21T01:37:05;13.38;;;8.68;;
46439;SDS011;32138;50.966;6.968;2023-11-21T01:38:36;16.48;;;9.75;;
46439;SDS011;32138;50.966;6.968;2023-11-21T01:40:07;15.82;;;9.73;;
46439;SDS011;32138;50.966;6.968;2023-11-21T01:41:43;14.38;;;8.82;;
46439;SDS011;32138;50.966;6.968;2023-11-21T01:43:14;18.00;;;9.02;;
46439;SDS011;32138;50.966;6.968;2023-11-21T01:44:44;13.50;;;9.43;;
46439;SDS011;32138;50.966;6.968;2023-11-21T01:46:16;13.75;;;9.45;;
46439;SDS011;32138;50.966;6.968;2023-11-21T01:47:47;17.50;;;10.18;;
46439;SDS011;32138;50.966;6.968;2023-11-21T01:49:18;20.05;;;10.65;;
46439;SDS011;32138;50.966;6.968;2023-11-21T01:50:50;16.75;;;9.88;;
46439;SDS011;32138;50.966;6.968;2023-11-21T01:52:21;14.27;;;8.27;;
46439;SDS011;32138;50.966;6.968;2023-11-21T01:53:52;18.20;;;9.73;;
46439;SDS011;32138;50.966;6.968;2023-11-21T01:55:23;16.35;;;9.23;;
46439;SDS011;32138;50.966;6.968;2023-11-21T01:56:54;16.13;;;9.27;;
46439;SDS011;32138;50.966;6.968;2023-11-21T01:58:24;13.27;;;9.48;;
46439;SDS011;32138;50.966;6.968;2023-11-21T01:59:55;15.30;;;9.40;;
46439;SDS011;32138;50.966;6.968;2023-11-21T02:01:28;15.82;;;8.65;;
46439;SDS011;32138;50.966;6.968;2023-11-21T02:02:59;15.63;;;9.05;;
46439;SDS011;32138;50.966;6.968;2023-11-21T02:04:31;13.60;;;8.98;;
46439;SDS011;32138;50.966;6.968;2023-11-21T02:06:06;13.35;;;9.00;;
46439;SDS011;32138;50.966;6.968;2023-11-21T02:07:41;17.05;;;9.30;;
46439;SDS011;32138;50.966;6.968;2023-11-21T02:09:15;16.80;;;10.07;;
46439;SDS011;32138;50.966;6.968;2023-11-21T02:10:45;17.20;;;9.82;;
46439;SDS011;32138;50.966;6.968;2023-11-21T02:12:17;19.80;;;9.93;;
46439;SDS011;32138;50.966;6.968;2023-11-21T02:13:48;13.88;;;9.32;;
46439;SDS011;32138;50.966;6.968;2023-11-21T02:15:20;15.52;;;9.50;;
46439;SDS011;32138;50.966;6.968;2023-11-21T02:16:51;15.80;;;9.55;;
46439;SDS011;32138;50.966;6.968;2023-11-21T02:18:21;14.50;;;8.90;;
46439;SDS011;32138;50.966;6.968;2023-11-21T02:19:52;11.85;;;7.97;;
46439;SDS011;32138;50.966;6.968;2023-11-21T02:21:24;13.95;;;9.27;;
46439;SDS011;32138;50.966;6.968;2023-11-21T02:22:56;17.45;;;10.05;;
46439;SDS011;32138;50.966;6.968;2023-11-21T02:24:28;14.85;;;9.88;;
46439;SDS011;32138;50.966;6.968;2023-11-21T02:25:58;13.60;;;9.32;;
46439;SDS011;32138;50.966;6.968;2023-11-21T02:27:34;19.35;;;10.60;;
46439;SDS011;32138;50.966;6.968;2023-11-21T02:29:04;18.40;;;10.10;;
46439;SDS011;32138;50.966;6.968;2023-11-21T02:30:35;16.85;;;11.27;;
46439;SDS011;32138;50.966;6.968;2023-11-21T02:32:07;13.43;;;10.25;;
46439;SDS011;32138;50.966;6.968;2023-11-21T02:33:40;16.52;;;9.93;;
46439;SDS011;32138;50.966;6.968;2023-11-21T02:35:11;14.75;;;10.30;;
46439;SDS011;32138;50.966;6.968;2023-11-21T02:36:42;17.10;;;10.15;;
46439;SDS011;32138;50.966;6.968;2023-11-21T02:38:17;14.82;;;10.18;;
46439;SDS011;32138;50.966;6.968;2023-11-21T02:39:48;14.73;;;9.40;;
46439;SDS011;32138;50.966;6.968;2023-11-21T02:41:18;13.45;;;10.48;;
46439;SDS011;32138;50.966;6.968;2023-11-21T02:42:49;24.48;;;14.15;;
46439;SDS011;32138;50.966;6.968;2023-11-21T02:44:23;15.70;;;10.82;;
46439;SDS011;32138;50.966;6.968;2023-11-21T02:45:54;18.20;;;11.30;;
46439;SDS011;32138;50.966;6.968;2023-11-21T02:47:25;19.13;;;11.48;;
46439;SDS011;32138;50.966;6.968;2023-11-21T02:48:55;17.55;;;10.80;;
46439;SDS011;32138;50.966;6.968;2023-11-21T02:50:27;16.48;;;11.30;;
46439;SDS011;32138;50.966;6.968;2023-11-21T02:51:59;19.65;;;11.68;;
46439;SDS011;32138;50.966;6.968;2023-11-21T02:53:31;20.00;;;12.02;;
46439;SDS011;32138;50.966;6.968;2023-11-21T02:55:02;19.08;;;11.70;;
46439;SDS011;32138;50.966;6.968;2023-11-21T02:56:33;19.58;;;12.55;;
46439;SDS011;32138;50.966;6.968;2023-11-21T02:58:04;16.65;;;11.10;;
46439;SDS011;32138;50.966;6.968;2023-11-21T02:59:36;17.08;;;11.98;;
46439;SDS011;32138;50.966;6.968;2023-11-21T03:01:06;20.70;;;11.75;;
46439;SDS011;32138;50.966;6.968;2023-11-21T03:02:37;14.27;;;10.88;;
46439;SDS011;32138;50.966;6.968;2023-11-21T03:04:09;19.80;;;12.02;;
46439;SDS011;32138;50.966;6.968;2023-11-21T03:05:39;25.58;;;11.80;;
46439;SDS011;32138;50.966;6.968;2023-11-21T03:07:10;19.05;;;12.20;;
46439;SDS011;32138;50.966;6.968;2023-11-21T03:08:41;19.00;;;11.55;;
46439;SDS011;32138;50.966;6.968;2023-11-21T03:10:12;21.95;;;12.40;;
46439;SDS011;32138;50.966;6.968;2023-11-21T03:11:43;17.52;;;11.05;;
46439;SDS011;32138;50.966;6.968;2023-11-21T03:13:13;15.80;;;10.55;;
46439;SDS011;32138;50.966;6.968;2023-11-21T03:14:44;19.75;;;10.38;;
46439;SDS011;32138;50.966;6.968;2023-11-21T03:16:15;19.45;;;10.95;;
46439;SDS011;32138;50.966;6.968;2023-11-21T03:17:46;18.17;;;11.25;;
46439;SDS011;32138;50.966;6.968;2023-11-21T03:19:19;19.60;;;11.93;;
46439;SDS011;32138;50.966;6.968;2023-11-21T03:20:54;22.90;;;12.10;;
46439;SDS011;32138;50.966;6.968;2023-11-21T03:22:25;18.27;;;11.73;;
46439;SDS011;32138;50.966;6.968;2023-11-21T03:23:56;21.08;;;10.30;;
46439;SDS011;32138;50.966;6.968;2023-11-21T03:25:27;17.73;;;10.95;;
46439;SDS011;32138;50.966;6.968;2023-11-21T03:26:58;20.75;;;11.55;;
46439;SDS011;32138;50.966;6.968;2023-11-21T03:28:29;16.02;;;11.20;;
46439;SDS011;32138;50.966;6.968;2023-11-21T03:30:00;19.88;;;11.95;;
46439;SDS011;32138;50.966;6.968;2023-11-21T03:31:31;15.63;;;10.93;;
46439;SDS011;32138;50.966;6.968;2023-11-21T03:33:01;18.25;;;11.88;;
46439;SDS011;32138;50.966;6.968;2023-11-21T03:34:32;16.58;;;12.10;;
46439;SDS011;32138;50.966;6.968;2023-11-21T03:36:03;24.77;;;12.55;;
46439;SDS011;32138;50.966;6.968;2023-11-21T03:37:34;18.30;;;13.15;;
46439;SDS011;32138;50.966;6.968;2023-11-21T03:39:05;17.33;;;11.88;;
46439;SDS011;32138;50.966;6.968;2023-11-21T03:40:36;25.58;;;12.68;;
46439;SDS011;32138;50.966;6.968;2023-11-21T03:42:07;18.35;;;12.18;;
46439;SDS011;32138;50.966;6.968;2023-11-21T03:43:38;20.20;;;11.73;;
46439;SDS011;32138;50.966;6.968;2023-11-21T03:45:08;19.90;;;12.32;;
46439;SDS011;32138;50.966;6.968;2023-11-21T03:46:40;17.17;;;10.57;;
46439;SDS011;32138;50.966;6.968;2023-11-21T03:48:11;18.38;;;11.55;;
46439;SDS011;32138;50.966;6.968;2023-11-21T03:49:43;21.13;;;12.55;;
46439;SDS011;32138;50.966;6.968;2023-11-21T03:51:13;14.75;;;10.38;;
46439;SDS011;32138;50.966;6.968;2023-11-21T03:52:44;19.83;;;12.45;;
46439;SDS011;32138;50.966;6.968;2023-11-21T03:54:15;21.05;;;12.98;;
46439;SDS011;32138;50.966;6.968;2023-11-21T03:55:46;20.83;;;12.30;;
46439;SDS011;32138;50.966;6.968;2023-11-21T03:57:16;20.55;;;12.77;;
46439;SDS011;32138;50.966;6.968;2023-11-21T03:58:47;19.85;;;11.07;;
46439;SDS011;32138;50.966;6.968;2023-11-21T04:00:19;19.65;;;13.07;;
46439;SDS011;32138;50.966;6.968;2023-11-21T04:01:50;16.70;;;12.48;;
46439;SDS011;32138;50.966;6.968;2023-11-21T04:03:21;19.42;;;11.52;;
46439;SDS011;32138;50.966;6.968;2023-11-21T04:04:51;24.95;;;13.15;;
46439;SDS011;32138;50.966;6.968;2023-11-21T04:06:22;22.65;;;13.90;;
46439;SDS011;32138;50.966;6.968;2023-11-21T04:07:53;21.15;;;13.90;;
46439;SDS011;32138;50.966;6.968;2023-11-21T04:09:24;24.02;;;13.90;;
46439;SDS011;32138;50.966;6.968;2023-11-21T04:10:55;22.75;;;14.65;;
46439;SDS011;32138;50.966;6.968;2023-11-21T04:12:26;21.23;;;13.75;;
46439;SDS011;32138;50.966;6.968;2023-11-21T04:13:56;19.05;;;11.40;;
46439;SDS011;32138;50.966;6.968;2023-11-21T04:15:27;20.35;;;12.93;;
46439;SDS011;32138;50.966;6.968;2023-11-21T04:16:58;19.48;;;12.93;;
46439;SDS011;32138;50.966;6.968;2023-11-21T04:18:28;24.00;;;13.30;;
46439;SDS011;32138;50.966;6.968;2023-11-21T04:19:59;25.40;;;14.30;;
46439;SDS011;32138;50.966;6.968;2023-11-21T04:21:30;22.58;;;14.13;;
46439;SDS011;32138;50.966;6.968;2023-11-21T04:23:01;23.02;;;14.07;;
46439;SDS011;32138;50.966;6.968;2023-11-21T04:24:33;20.02;;;14.50;;
46439;SDS011;32138;50.966;6.968;2023-11-21T04:26:04;19.80;;;12.93;;
46439;SDS011;32138;50.966;6.968;2023-11-21T04:27:34;19.20;;;13.45;;
46439;SDS011;32138;50.966;6.968;2023-11-21T04:29:05;19.50;;;12.85;;
46439;SDS011;32138;50.966;6.968;2023-11-21T04:30:36;18.98;;;12.45;;
46439;SDS011;32138;50.966;6.968;2023-11-21T04:32:07;18.25;;;12.38;;
46439;SDS011;32138;50.966;6.968;2023-11-21T04:33:37;23.60;;;14.27;;
46439;SDS011;32138;50.966;6.968;2023-11-21T04:35:08;23.95;;;15.52;;
46439;SDS011;32138;50.966;6.968;2023-11-21T04:36:39;21.98;;;14.38;;
46439;SDS011;32138;50.966;6.968;2023-11-21T04:38:10;18.92;;;12.77;;
46439;SDS011;32138;50.966;6.968;2023-11-21T04:39:41;20.98;;;14.65;;
46439;SDS011;32138;50.966;6.968;2023-11-21T04:41:12;20.15;;;13.10;;
46439;SDS011;32138;50.966;6.968;2023-11-21T04:42:42;24.17;;;15.45;;
46439;SDS011;32138;50.966;6.968;2023-11-21T04:44:13;23.02;;;13.95;;
46439;SDS011;32138;50.966;6.968;2023-11-21T04:45:46;28.33;;;15.98;;
46439;SDS011;32138;50.966;6.968;2023-11-21T04:47:17;21.65;;;14.75;;
46439;SDS011;32138;50.966;6.968;2023-11-21T04:48:49;19.48;;;14.43;;
46439;SDS011;32138;50.966;6.968;2023-11-21T04:50:20;21.55;;;13.20;;
46439;SDS011;32138;50.966;6.968;2023-11-21T04:51:51;20.23;;;13.43;;
46439;SDS011;32138;50.966;6.968;2023-11-21T04:53:22;25.13;;;15.23;;
46439;SDS011;32138;50.966;6.968;2023-11-21T04:54:52;20.60;;;13.50;;
46439;SDS011;32138;50.966;6.968;2023-11-21T04:56:27;21.42;;;14.02;;
46439;SDS011;32138;50.966;6.968;2023-11-21T04:57:58;23.35;;;14.57;;
46439;SDS011;32138;50.966;6.968;2023-11-21T04:59:29;26.17;;;15.75;;
46439;SDS011;32138;50.966;6.968;2023-11-21T05:00:59;19.00;;;13.88;;
46439;SDS011;32138;50.966;6.968;2023-11-21T05:02:30;19.48;;;13.50;;
46439;SDS011;32138;50.966;6.968;2023-11-21T05:04:05;20.60;;;13.95;;
46439;SDS011;32138;50.966;6.968;2023-11-21T05:05:36;19.55;;;13.85;;
46439;SDS011;32138;50.966;6.968;2023-11-21T05:07:06;28.58;;;16.85;;
46439;SDS011;32138;50.966;6.968;2023-11-21T05:08:38;21.23;;;13.57;;
46439;SDS011;32138;50.966;6.968;2023-11-21T05:10:08;18.80;;;12.95;;
46439;SDS011;32138;50.966;6.968;2023-11-21T05:11:41;22.90;;;15.27;;
46439;SDS011;32138;50.966;6.968;2023-11-21T05:13:12;23.40;;;15.05;;
46439;SDS011;32138;50.966;6.968;2023-11-21T05:14:45;20.10;;;14.13;;
46439;SDS011;32138;50.966;6.968;2023-11-21T05:16:16;20.17;;;14.73;;
46439;SDS011;32138;50.966;6.968;2023-11-21T05:17:47;19.45;;;13.75;;
46439;SDS011;32138;50.966;6.968;2023-11-21T05:19:19;19.10;;;13.75;;
46439;SDS011;32138;50.966;6.968;2023-11-21T05:20:51;21.67;;;15.13;;
46439;SDS011;32138;50.966;6.968;2023-11-21T05:22:21;26.20;;;15.60;;
46439;SDS011;32138;50.966;6.968;2023-11-21T05:23:52;20.50;;;15.00;;
46439;SDS011;32138;50.966;6.968;2023-11-21T05:25:23;27.05;;;15.35;;
46439;SDS011;32138;50.966;6.968;2023-11-21T05:26:54;18.08;;;13.90;;
46439;SDS011;32138;50.966;6.968;2023-11-21T05:28:24;24.17;;;14.45;;
46439;SDS011;32138;50.966;6.968;2023-11-21T05:29:55;21.52;;;14.93;;
46439;SDS011;32138;50.966;6.968;2023-11-21T05:31:26;21.38;;;15.50;;
46439;SDS011;32138;50.966;6.968;2023-11-21T05:32:57;21.45;;;14.52;;
46439;SDS011;32138;50.966;6.968;2023-11-21T05:34:28;24.05;;;15.40;;
46439;SDS011;32138;50.966;6.968;2023-11-21T05:35:58;23.88;;;14.35;;
46439;SDS011;32138;50.966;6.968;2023-11-21T05:37:29;20.63;;;14.05;;
46439;SDS011;32138;50.966;6.968;2023-11-21T05:39:00;21.85;;;14.27;;
46439;SDS011;32138;50.966;6.968;2023-11-21T05:40:33;22.83;;;14.10;;
46439;SDS011;32138;50.966;6.968;2023-11-21T05:42:04;25.33;;;15.18;;
46439;SDS011;32138;50.966;6.968;2023-11-21T05:43:36;23.40;;;14.77;;
46439;SDS011;32138;50.966;6.968;2023-11-21T05:45:07;22.98;;;15.25;;
46439;SDS011;32138;50.966;6.968;2023-11-21T05:46:41;17.08;;;13.60;;
46439;SDS011;32138;50.966;6.968;2023-11-21T05:48:13;22.45;;;15.25;;
46439;SDS011;32138;50.966;6.968;2023-11-21T05:49:43;20.85;;;15.13;;
46439;SDS011;32138;50.966;6.968;2023-11-21T05:51:15;29.27;;;16.77;;
46439;SDS011;32138;50.966;6.968;2023-11-21T05:52:47;24.92;;;16.02;;
46439;SDS011;32138;50.966;6.968;2023-11-21T05:54:18;20.77;;;14.50;;
46439;SDS011;32138;50.966;6.968;2023-11-21T05:55:49;22.90;;;14.77;;
46439;SDS011;32138;50.966;6.968;2023-11-21T05:57:19;26.17;;;16.95;;
46439;SDS011;32138;50.966;6.968;2023-11-21T05:58:50;24.70;;;16.50;;
46439;SDS011;32138;50.966;6.968;2023-11-21T06:00:22;30.83;;;20.30;;
46439;SDS011;32138;50.966;6.968;2023-11-21T06:01:55;28.17;;;18.00;;
46439;SDS011;32138;50.966;6.968;2023-11-21T06:03:26;22.90;;;17.15;;
46439;SDS011;32138;50.966;6.968;2023-11-21T06:04:57;27.90;;;17.75;;
46439;SDS011;32138;50.966;6.968;2023-11-21T06:06:28;29.67;;;17.10;;
46439;SDS011;32138;50.966;6.968;2023-11-21T06:07:58;25.70;;;17.02;;
46439;SDS011;32138;50.966;6.968;2023-11-21T06:09:30;27.88;;;18.38;;
46439;SDS011;32138;50.966;6.968;2023-11-21T06:11:01;22.77;;;16.42;;
46439;SDS011;32138;50.966;6.968;2023-11-21T06:12:32;26.08;;;17.67;;
46439;SDS011;32138;50.966;6.968;2023-11-21T06:14:06;27.85;;;16.98;;
46439;SDS011;32138;50.966;6.968;2023-11-21T06:15:38;29.60;;;16.98;;
46439;SDS011;32138;50.966;6.968;2023-11-21T06:17:08;26.63;;;17.45;;
46439;SDS011;32138;50.966;6.968;2023-11-21T06:18:39;26.67;;;17.48;;
46439;SDS011;32138;50.966;6.968;2023-11-21T06:20:10;22.38;;;14.95;;
46439;SDS011;32138;50.966;6.968;2023-11-21T06:21:46;22.85;;;15.05;;
46439;SDS011;32138;50.966;6.968;2023-11-21T06:23:17;25.58;;;14.85;;
46439;SDS011;32138;50.966;6.968;2023-11-21T06:24:48;22.40;;;15.15;;
46439;SDS011;32138;50.966;6.968;2023-11-21T06:26:19;22.17;;;15.40;;
46439;SDS011;32138;50.966;6.968;2023-11-21T06:27:50;28.83;;;16.58;;
46439;SDS011;32138;50.966;6.968;2023-11-21T06:29:22;29.75;;;17.35;;
46439;SDS011;32138;50.966;6.968;2023-11-21T06:30:53;26.77;;;17.08;;
46439;SDS011;32138;50.966;6.968;2023-11-21T06:32:24;21.30;;;15.50;;
46439;SDS011;32138;50.966;6.968;2023-11-21T06:33:56;27.85;;;16.23;;
46439;SDS011;32138;50.966;6.968;2023-11-21T06:35:27;21.48;;;15.68;;
46439;SDS011;32138;50.966;6.968;2023-11-21T06:37:00;27.50;;;15.40;;
46439;SDS011;32138;50.966;6.968;2023-11-21T06:38:31;24.55;;;16.58;;
46439;SDS011;32138;50.966;6.968;2023-11-21T06:40:02;22.25;;;14.43;;
46439;SDS011;32138;50.966;6.968;2023-11-21T06:41:34;19.70;;;15.18;;
46439;SDS011;32138;50.966;6.968;2023-11-21T06:43:05;23.08;;;16.70;;
46439;SDS011;32138;50.966;6.968;2023-11-21T06:44:37;23.80;;;16.80;;
46439;SDS011;32138;50.966;6.968;2023-11-21T06:46:08;22.98;;;15.60;;
46439;SDS011;32138;50.966;6.968;2023-11-21T06:47:41;21.98;;;15.52;;
46439;SDS011;32138;50.966;6.968;2023-11-21T06:49:12;25.02;;;16.33;;
46439;SDS011;32138;50.966;6.968;2023-11-21T06:50:43;21.70;;;15.57;;
46439;SDS011;32138;50.966;6.968;2023-11-21T06:52:13;23.23;;;16.60;;
46439;SDS011;32138;50.966;6.968;2023-11-21T06:53:44;24.13;;;15.70;;
46439;SDS011;32138;50.966;6.968;2023-11-21T06:55:15;25.20;;;16.35;;
46439;SDS011;32138;50.966;6.968;2023-11-21T06:56:46;23.08;;;16.92;;
46439;SDS011;32138;50.966;6.968;2023-11-21T06:58:17;21.00;;;15.98;;
46439;SDS011;32138;50.966;6.968;2023-11-21T06:59:48;23.73;;;16.73;;
46439;SDS011;32138;50.966;6.968;2023-11-21T07:01:20;27.65;;;17.38;;
46439;SDS011;32138;50.966;6.968;2023-11-21T07:02:51;25.10;;;16.55;;
46439;SDS011;32138;50.966;6.968;2023-11-21T07:04:21;24.52;;;15.57;;
46439;SDS011;32138;50.966;6.968;2023-11-21T07:05:52;25.83;;;15.40;;
46439;SDS011;32138;50.966;6.968;2023-11-21T07:07:23;23.30;;;16.33;;
46439;SDS011;32138;50.966;6.968;2023-11-21T07:08:54;28.42;;;16.50;;
46439;SDS011;32138;50.966;6.968;2023-11-21T07:10:24;23.85;;;15.43;;
46439;SDS011;32138;50.966;6.968;2023-11-21T07:11:55;22.13;;;15.10;;
46439;SDS011;32138;50.966;6.968;2023-11-21T07:13:26;27.02;;;15.85;;
46439;SDS011;32138;50.966;6.968;2023-11-21T07:14:57;24.05;;;15.52;;
46439;SDS011;32138;50.966;6.968;2023-11-21T07:16:28;23.50;;;16.17;;
46439;SDS011;32138;50.966;6.968;2023-11-21T07:18:00;27.60;;;16.25;;
46439;SDS011;32138;50.966;6.968;2023-11-21T07:19:31;23.05;;;15.70;;
46439;SDS011;32138;50.966;6.968;2023-11-21T07:21:01;25.00;;;15.43;;
46439;SDS011;32138;50.966;6.968;2023-11-21T07:22:33;27.42;;;16.35;;
46439;SDS011;32138;50.966;6.968;2023-11-21T07:24:04;30.45;;;17.40;;
46439;SDS011;32138;50.966;6.968;2023-11-21T07:25:37;25.63;;;17.08;;
46439;SDS011;32138;50.966;6.968;2023-11-21T07:27:07;24.92;;;15.80;;
46439;SDS011;32138;50.966;6.968;2023-11-21T07:28:38;23.52;;;15.90;;
46439;SDS011;32138;50.966;6.968;2023-11-21T07:30:09;25.33;;;16.48;;
46439;SDS011;32138;50.966;6.968;2023-11-21T07:31:41;30.70;;;17.95;;
46439;SDS011;32138;50.966;6.968;2023-11-21T07:33:11;24.15;;;16.92;;
46439;SDS011;32138;50.966;6.968;2023-11-21T07:34:42;22.05;;;15.43;;
46439;SDS011;32138;50.966;6.968;2023-11-21T07:36:13;25.10;;;17.02;;
46439;SDS011;32138;50.966;6.968;2023-11-21T07:37:45;25.42;;;17.23;;
46439;SDS011;32138;50.966;6.968;2023-11-21T07:39:17;27.38;;;18.73;;
46439;SDS011;32138;50.966;6.968;2023-11-21T07:40:48;25.42;;;17.42;;
46439;SDS011;32138;50.966;6.968;2023-11-21T07:42:19;33.17;;;19.15;;
46439;SDS011;32138;50.966;6.968;2023-11-21T07:43:49;28.35;;;18.73;;
46439;SDS011;32138;50.966;6.968;2023-11-21T07:45:20;34.33;;;19.60;;
46439;SDS011;32138;50.966;6.968;2023-11-21T07:46:52;25.58;;;18.27;;
46439;SDS011;32138;50.966;6.968;2023-11-21T07:48:22;37.53;;;19.80;;
46439;SDS011;32138;50.966;6.968;2023-11-21T07:49:53;28.70;;;18.83;;
46439;SDS011;32138;50.966;6.968;2023-11-21T07:51:26;30.27;;;20.25;;
46439;SDS011;32138;50.966;6.968;2023-11-21T07:52:57;31.25;;;17.92;;
46439;SDS011;32138;50.966;6.968;2023-11-21T07:54:28;26.23;;;18.30;;
46439;SDS011;32138;50.966;6.968;2023-11-21T07:56:02;30.25;;;20.10;;
46439;SDS011;32138;50.966;6.968;2023-11-21T07:57:34;30.25;;;20.15;;
46439;SDS011;32138;50.966;6.968;2023-11-21T07:59:05;30.83;;;20.77;;
46439;SDS011;32138;50.966;6.968;2023-11-21T08:00:36;39.50;;;22.23;;
46439;SDS011;32138;50.966;6.968;2023-11-21T08:02:09;34.63;;;21.88;;
46439;SDS011;32138;50.966;6.968;2023-11-21T08:03:40;36.08;;;20.42;;
46439;SDS011;32138;50.966;6.968;2023-11-21T08:05:11;37.40;;;21.50;;
46439;SDS011;32138;50.966;6.968;2023-11-21T08:06:42;30.05;;;20.02;;
46439;SDS011;32138;50.966;6.968;2023-11-21T08:08:13;35.78;;;21.75;;
46439;SDS011;32138;50.966;6.968;2023-11-21T08:09:45;34.88;;;22.25;;
46439;SDS011;32138;50.966;6.968;2023-11-21T08:11:16;35.03;;;21.55;;
46439;SDS011;32138;50.966;6.968;2023-11-21T08:12:47;32.92;;;20.58;;
46439;SDS011;32138;50.966;6.968;2023-11-21T08:14:18;35.20;;;21.85;;
46439;SDS011;32138;50.966;6.968;2023-11-21T08:15:50;31.85;;;20.65;;
46439;SDS011;32138;50.966;6.968;2023-11-21T08:17:24;30.08;;;19.52;;
46439;SDS011;32138;50.966;6.968;2023-11-21T08:18:54;33.50;;;19.65;;
46439;SDS011;32138;50.966;6.968;2023-11-21T08:20:25;33.28;;;21.33;;
46439;SDS011;32138;50.966;6.968;2023-11-21T08:21:56;32.17;;;20.08;;
46439;SDS011;32138;50.966;6.968;2023-11-21T08:23:29;35.28;;;21.45;;
46439;SDS011;32138;50.966;6.968;2023-11-21T08:24:59;31.02;;;20.20;;
46439;SDS011;32138;50.966;6.968;2023-11-21T08:26:30;32.25;;;21.27;;
46439;SDS011;32138;50.966;6.968;2023-11-21T08:28:01;40.35;;;22.15;;
46439;SDS011;32138;50.966;6.968;2023-11-21T08:29:32;36.30;;;22.02;;
46439;SDS011;32138;50.966;6.968;2023-11-21T08:31:03;37.47;;;22.30;;
46439;SDS011;32138;50.966;6.968;2023-11-21T08:32:34;33.22;;;20.35;;
46439;SDS011;32138;50.966;6.968;2023-11-21T08:34:05;37.78;;;21.85;;
46439;SDS011;32138;50.966;6.968;2023-11-21T08:35:36;38.67;;;22.27;;
46439;SDS011;32138;50.966;6.968;2023-11-21T08:37:07;35.67;;;21.27;;
46439;SDS011;32138;50.966;6.968;2023-11-21T08:38:38;33.63;;;20.85;;
46439;SDS011;32138;50.966;6.968;2023-11-21T08:40:09;38.60;;;22.98;;
46439;SDS011;32138;50.966;6.968;2023-11-21T08:41:42;34.55;;;21.52;;
46439;SDS011;32138;50.966;6.968;2023-11-21T08:43:13;29.77;;;20.13;;
46439;SDS011;32138;50.966;6.968;2023-11-21T08:44:46;38.83;;;24.50;;
46439;SDS011;32138;50.966;6.968;2023-11-21T08:46:17;35.55;;;23.23;;
46439;SDS011;32138;50.966;6.968;2023-11-21T08:47:48;35.40;;;21.73;;
46439;SDS011;32138;50.966;6.968;2023-11-21T08:49:19;39.60;;;23.05;;
46439;SDS011;32138;50.966;6.968;2023-11-21T08:50:49;40.83;;;23.50;;
46439;SDS011;32138;50.966;6.968;2023-11-21T08:52:21;34.50;;;22.88;;
46439;SDS011;32138;50.966;6.968;2023-11-21T08:53:52;36.80;;;21.05;;
46439;SDS011;32138;50.966;6.968;2023-11-21T08:55:23;40.80;;;22.50;;
46439;SDS011;32138;50.966;6.968;2023-11-21T08:56:54;33.90;;;20.30;;